Columbus, Ohio
Traffic Map
Current Weather Conditions
Columbus, Ohio
Broken Clouds
Broken Clouds
77°
Feels Like: 79°
Wind Chill: 77° Ceiling: 7000
Heat Index: 79° Visibility: 8mi
Dew Point: 67° Wind: 9mph
Humidity: 71% Direction: 290° (WNW)
Pressure: 30.03in Gusts: 0mph
Raw Report DataKCMH 231051Z 29008KT 8SM FEW045 BKN070 BKN110 25/19 A3003 RMK AO2 SLP162 T02500194
Traffic Incident Summary
Active as of:
Severity:
Category:
InformationThere was an issue retrieving the traffic information for this location. Please try a different location or try again shortly.
Advertisements
Track Severe Weather on mobile